createdAt,value
2018-09-24T00:02:01.330Z,12.13
2018-09-24T00:04:31.040Z,11.70
2018-09-24T00:07:00.598Z,11.83
2018-09-24T00:09:34.011Z,11.30
2018-09-24T00:12:03.845Z,10.93
2018-09-24T00:14:33.790Z,10.80
2018-09-24T00:17:03.214Z,10.37
2018-09-24T00:19:33.131Z,11.00
2018-09-24T00:22:02.680Z,11.23
2018-09-24T00:24:32.476Z,10.13
2018-09-24T00:27:02.266Z,11.13
2018-09-24T00:29:32.021Z,10.60
2018-09-24T00:32:01.507Z,10.47
2018-09-24T00:34:30.726Z,10.87
2018-09-24T00:37:00.079Z,11.10
2018-09-24T00:39:29.532Z,10.33
2018-09-24T00:41:58.780Z,9.83
2018-09-24T00:44:28.647Z,11.03
2018-09-24T00:46:58.133Z,10.03
2018-09-24T00:49:27.749Z,10.90
2018-09-24T00:51:57.739Z,10.57
2018-09-24T00:54:27.252Z,9.13
2018-09-24T00:56:58.339Z,10.43
2018-09-24T00:59:27.690Z,9.47
2018-09-24T01:01:57.446Z,11.20
2018-09-24T01:04:27.303Z,10.40
2018-09-24T01:06:57.066Z,10.33
2018-09-24T01:09:26.744Z,9.90
2018-09-24T01:11:56.474Z,10.37
2018-09-24T01:14:25.767Z,9.40
2018-09-24T01:16:55.266Z,10.40
2018-09-24T01:19:24.756Z,10.43
2018-09-24T01:21:55.134Z,9.67
2018-09-24T01:24:24.571Z,9.60
2018-09-24T01:26:54.574Z,10.60
2018-09-24T01:29:23.799Z,10.30
2018-09-24T01:31:53.715Z,10.40
2018-09-24T01:34:23.223Z,10.63
2018-09-24T01:36:52.725Z,9.50
2018-09-24T01:39:22.670Z,10.37
2018-09-24T01:41:52.342Z,10.33
2018-09-24T01:44:21.835Z,10.87
2018-09-24T01:46:51.346Z,9.93
2018-09-24T01:49:21.459Z,10.97
2018-09-24T01:51:50.819Z,9.80
2018-09-24T01:54:21.187Z,9.77
2018-09-24T01:56:50.859Z,10.27
2018-09-24T01:59:20.335Z,10.47
2018-09-24T02:01:49.822Z,10.90
2018-09-24T02:04:19.323Z,10.57
2018-09-24T02:06:49.280Z,10.67
2018-09-24T02:09:18.735Z,10.60
2018-09-24T02:11:48.054Z,10.50
2018-09-24T02:14:17.998Z,10.60
2018-09-24T02:16:47.739Z,11.20
2018-09-24T02:19:17.173Z,12.17
2018-09-24T02:21:47.006Z,10.80
2018-09-24T02:24:16.399Z,12.00
2018-09-24T02:26:45.908Z,12.93
2018-09-24T02:29:15.374Z,12.60
2018-09-24T02:31:45.230Z,12.03
2018-09-24T02:34:14.470Z,12.73
2018-09-24T02:36:43.779Z,13.50
2018-09-24T02:39:13.504Z,13.30
2018-09-24T02:41:42.934Z,13.93
2018-09-24T02:44:12.403Z,13.57
2018-09-24T02:46:43.296Z,14.00
2018-09-24T02:49:12.858Z,14.33
2018-09-24T02:51:42.910Z,14.47
2018-09-24T02:54:12.265Z,14.70
2018-09-24T02:56:47.171Z,14.90
2018-09-24T02:59:16.916Z,14.63
2018-09-24T03:01:46.175Z,14.23
2018-09-24T03:04:16.003Z,13.13
2018-09-24T03:06:45.343Z,12.90
2018-09-24T03:09:17.011Z,12.07
2018-09-24T03:11:47.764Z,12.00
2018-09-24T03:14:23.941Z,12.83
2018-09-24T03:16:54.294Z,12.57
2018-09-24T03:19:23.943Z,12.80
2018-09-24T03:21:53.627Z,12.10
2018-09-24T03:24:23.366Z,11.93
2018-09-24T03:26:53.451Z,11.73
2018-09-24T03:29:25.561Z,11.50
2018-09-24T03:31:54.925Z,11.37
2018-09-24T03:34:25.337Z,11.80
2018-09-24T03:36:54.746Z,10.70
2018-09-24T03:39:24.309Z,11.97
2018-09-24T03:41:53.792Z,11.20
2018-09-24T03:44:23.878Z,11.00
2018-09-24T03:46:53.383Z,10.20
2018-09-24T03:49:22.791Z,10.13
2018-09-24T03:51:52.389Z,10.50
2018-09-24T03:54:21.915Z,9.20
2018-09-24T03:56:52.271Z,9.57
2018-09-24T03:59:21.718Z,9.17
2018-09-24T04:01:51.275Z,9.37
2018-09-24T04:04:25.882Z,9.43
2018-09-24T04:07:00.779Z,8.50
2018-09-24T04:09:35.583Z,9.20
2018-09-24T04:12:10.243Z,9.03
2018-09-24T04:14:45.775Z,9.43
2018-09-24T04:17:20.532Z,9.07
2018-09-24T04:19:54.882Z,9.13
2018-09-24T04:22:29.668Z,8.57
2018-09-24T04:25:04.431Z,8.67
2018-09-24T04:27:43.126Z,9.43
2018-09-24T04:30:17.848Z,8.77
2018-09-24T04:32:52.683Z,8.67
2018-09-24T04:35:27.492Z,8.57
2018-09-24T04:38:02.304Z,8.07
2018-09-24T04:40:37.351Z,7.87
2018-09-24T04:43:12.531Z,8.57
2018-09-24T04:45:47.439Z,8.70
2018-09-24T04:48:22.413Z,9.87
2018-09-24T04:50:56.744Z,9.23
2018-09-24T04:53:31.314Z,8.37
2018-09-24T04:56:05.983Z,9.57
2018-09-24T04:58:41.146Z,8.63
2018-09-24T05:01:15.630Z,8.67
2018-09-24T05:03:50.138Z,9.70
2018-09-24T05:06:24.638Z,9.13
2018-09-24T05:08:59.491Z,9.33
2018-09-24T05:11:34.074Z,9.90
2018-09-24T05:14:09.215Z,9.13
2018-09-24T05:16:43.755Z,9.40
2018-09-24T05:19:18.567Z,9.50
2018-09-24T05:21:53.448Z,9.87
2018-09-24T05:24:28.042Z,9.33
2018-09-24T05:27:03.030Z,9.33
2018-09-24T05:29:37.792Z,10.23
2018-09-24T05:32:12.810Z,10.23
2018-09-24T05:34:47.342Z,9.90
2018-09-24T05:37:22.175Z,9.67
2018-09-24T05:39:57.398Z,10.00
2018-09-24T05:42:32.162Z,10.20
2018-09-24T05:45:06.710Z,10.10
2018-09-24T05:47:41.623Z,10.17
2018-09-24T05:50:16.007Z,9.63
2018-09-24T05:52:50.556Z,9.47
2018-09-24T05:55:25.388Z,9.50
2018-09-24T05:58:00.102Z,9.57
2018-09-24T06:00:34.911Z,10.83
2018-09-24T06:03:09.478Z,9.17
2018-09-24T06:05:44.310Z,7.93
2018-09-24T06:08:18.883Z,8.93
2018-09-24T06:10:53.700Z,8.43
2018-09-24T06:13:28.262Z,7.93
2018-09-24T06:16:02.975Z,7.70
2018-09-24T06:18:37.766Z,8.67
2018-09-24T06:21:12.977Z,7.83
2018-09-24T06:23:47.898Z,7.90
2018-09-24T06:26:22.331Z,8.23
2018-09-24T06:28:56.624Z,7.83
2018-09-24T06:31:31.232Z,8.03
2018-09-24T06:34:06.270Z,7.53
2018-09-24T06:36:40.888Z,7.67
2018-09-24T06:39:15.507Z,7.90
2018-09-24T06:41:50.054Z,7.73
2018-09-24T06:44:24.743Z,7.47
2018-09-24T06:46:59.300Z,6.70
2018-09-24T06:49:34.151Z,7.70
2018-09-24T06:52:08.889Z,6.70
2018-09-24T06:54:43.802Z,7.17
2018-09-24T06:57:18.770Z,6.87
2018-09-24T06:59:54.075Z,6.37
2018-09-24T07:02:28.767Z,6.43
2018-09-24T07:05:03.739Z,7.00
2018-09-24T07:07:38.586Z,7.27
2018-09-24T07:10:13.479Z,7.13
2018-09-24T07:12:47.979Z,6.27
2018-09-24T07:15:22.513Z,5.83
2018-09-24T07:17:57.294Z,6.07
2018-09-24T07:20:31.956Z,6.50
2018-09-24T07:23:06.498Z,5.83
2018-09-24T07:25:41.118Z,5.87
2018-09-24T07:28:15.689Z,5.40
2018-09-24T07:30:50.236Z,5.40
2018-09-24T07:33:24.880Z,5.37
2018-09-24T07:35:59.402Z,5.63
2018-09-24T07:38:33.840Z,5.73
2018-09-24T07:41:08.244Z,5.27
2018-09-24T07:43:42.819Z,5.30
2018-09-24T07:46:17.369Z,4.77
2018-09-24T07:48:51.943Z,4.63
2018-09-24T07:51:26.842Z,4.33
2018-09-24T07:54:01.080Z,4.60
2018-09-24T07:56:35.634Z,4.13
2018-09-24T07:59:10.461Z,4.00
2018-09-24T08:01:45.276Z,4.40
2018-09-24T08:04:20.057Z,4.00
2018-09-24T08:06:55.330Z,3.90
2018-09-24T08:09:30.001Z,4.07
2018-09-24T08:12:04.711Z,4.70
2018-09-24T08:14:39.199Z,4.53
2018-09-24T08:17:13.862Z,4.20
2018-09-24T08:19:48.238Z,4.00
2018-09-24T08:22:23.079Z,4.13
2018-09-24T08:24:57.635Z,3.90
2018-09-24T08:27:32.143Z,3.90
2018-09-24T08:30:06.942Z,3.43
2018-09-24T08:32:41.794Z,3.60
2018-09-24T08:35:16.609Z,4.07
2018-09-24T08:37:51.314Z,3.60
2018-09-24T08:40:25.884Z,3.87
2018-09-24T08:43:00.652Z,3.47
2018-09-24T08:45:36.124Z,3.77
2018-09-24T08:48:11.369Z,4.13
2018-09-24T08:50:46.985Z,3.30
2018-09-24T08:53:21.933Z,3.70
2018-09-24T08:55:56.547Z,3.63
2018-09-24T08:58:31.111Z,3.90
2018-09-24T09:01:06.010Z,3.83
2018-09-24T09:03:40.832Z,3.50
2018-09-24T09:06:15.584Z,3.50
2018-09-24T09:08:50.441Z,3.27
2018-09-24T09:11:25.410Z,3.73
2018-09-24T09:14:00.293Z,3.10
2018-09-24T09:16:35.603Z,2.90
2018-09-24T09:19:10.482Z,3.60
2018-09-24T09:21:44.995Z,2.77
2018-09-24T09:24:19.515Z,2.90
2018-09-24T09:26:54.106Z,2.90
2018-09-24T09:29:28.697Z,3.50
2018-09-24T09:32:03.408Z,3.30
2018-09-24T09:34:37.841Z,3.10
2018-09-24T09:37:12.582Z,3.03
2018-09-24T09:39:47.276Z,3.13
2018-09-24T09:42:21.819Z,3.03
2018-09-24T09:44:56.745Z,3.70
2018-09-24T09:47:31.313Z,3.03
2018-09-24T09:50:05.971Z,2.50
2018-09-24T09:52:40.695Z,2.40
2018-09-24T09:55:15.714Z,2.70
2018-09-24T09:57:50.514Z,2.80
2018-09-24T10:00:25.535Z,2.93
2018-09-24T10:03:00.116Z,2.43
2018-09-24T10:05:35.151Z,2.40
2018-09-24T10:08:09.803Z,2.03
2018-09-24T10:10:44.398Z,2.03
2018-09-24T10:13:19.868Z,2.70
2018-09-24T10:15:54.521Z,2.53
2018-09-24T10:18:29.251Z,2.43
2018-09-24T10:21:03.974Z,2.30
2018-09-24T10:23:38.803Z,2.17
2018-09-24T10:26:13.866Z,1.87
2018-09-24T10:28:48.938Z,2.40
2018-09-24T10:31:23.682Z,2.37
2018-09-24T10:33:58.375Z,2.30
2018-09-24T10:36:33.399Z,2.00
2018-09-24T10:39:08.027Z,2.60
2018-09-24T10:41:42.598Z,2.70
2018-09-24T10:44:17.664Z,2.57
2018-09-24T10:46:52.528Z,2.77
2018-09-24T10:49:27.147Z,2.70
2018-09-24T10:52:01.765Z,2.30
2018-09-24T10:54:36.844Z,2.37
2018-09-24T10:57:18.543Z,2.33
2018-09-24T10:59:53.230Z,2.30
2018-09-24T11:02:27.753Z,2.53
2018-09-24T11:05:02.988Z,2.40
2018-09-24T11:07:37.779Z,2.43
2018-09-24T11:10:12.921Z,2.63
2018-09-24T11:12:48.074Z,2.77
2018-09-24T11:15:22.556Z,2.20
2018-09-24T11:17:57.757Z,2.20
2018-09-24T11:20:32.258Z,2.73
2018-09-24T11:23:07.582Z,2.00
2018-09-24T11:25:42.533Z,2.00
2018-09-24T11:28:17.754Z,2.33
2018-09-24T11:30:52.747Z,2.33
2018-09-24T11:33:27.432Z,2.77
2018-09-24T11:36:02.466Z,2.47
2018-09-24T11:38:36.962Z,1.93
2018-09-24T11:41:11.800Z,1.90
2018-09-24T11:43:46.652Z,1.90
2018-09-24T11:46:21.207Z,2.40
2018-09-24T11:48:55.802Z,2.47
2018-09-24T11:51:30.501Z,2.00
2018-09-24T11:54:05.766Z,2.40
2018-09-24T11:56:40.335Z,2.23
2018-09-24T11:59:15.320Z,1.93
2018-09-24T12:01:49.858Z,1.33
2018-09-24T12:04:24.803Z,1.90
2018-09-24T12:06:59.619Z,1.77
2018-09-24T12:09:34.335Z,1.90
2018-09-24T12:12:08.859Z,1.87
2018-09-24T12:14:43.863Z,1.67
2018-09-24T12:17:18.659Z,2.30
2018-09-24T12:19:53.712Z,2.53
2018-09-24T12:22:28.449Z,2.13
2018-09-24T12:25:03.348Z,2.43
2018-09-24T12:27:38.149Z,2.27
2018-09-24T12:30:13.008Z,1.77
2018-09-24T12:32:47.605Z,2.40
2018-09-24T12:35:22.351Z,1.50
2018-09-24T12:37:56.979Z,1.97
2018-09-24T12:40:32.208Z,2.87
2018-09-24T12:43:06.984Z,2.27
2018-09-24T12:45:41.979Z,2.37
2018-09-24T12:48:17.344Z,1.70
2018-09-24T12:50:52.371Z,2.30
2018-09-24T12:53:27.181Z,2.27
2018-09-24T12:56:02.266Z,2.13
2018-09-24T12:58:36.849Z,1.83
2018-09-24T13:01:11.852Z,1.90
2018-09-24T13:03:46.584Z,1.83
2018-09-24T13:06:21.651Z,2.20
2018-09-24T13:08:56.386Z,2.00
2018-09-24T13:11:31.070Z,1.90
2018-09-24T13:14:05.978Z,1.83
2018-09-24T13:16:40.520Z,1.93
2018-09-24T13:19:15.114Z,1.17
2018-09-24T13:21:49.728Z,1.17
2018-09-24T13:24:24.614Z,1.53
2018-09-24T13:26:59.395Z,1.00
2018-09-24T13:29:34.301Z,1.10
2018-09-24T13:32:09.241Z,1.43
2018-09-24T13:34:43.998Z,1.40
2018-09-24T13:37:18.470Z,1.33
2018-09-24T13:39:53.004Z,1.50
2018-09-24T13:42:28.403Z,1.47
2018-09-24T13:45:03.346Z,1.87
2018-09-24T13:47:38.002Z,1.83
2018-09-24T13:50:12.825Z,1.87
2018-09-24T13:52:47.577Z,1.80
2018-09-24T13:55:22.082Z,1.97
2018-09-24T13:57:56.755Z,1.97
2018-09-24T14:00:31.397Z,2.13
2018-09-24T14:03:06.083Z,2.27
2018-09-24T14:05:40.651Z,1.60
2018-09-24T14:08:15.187Z,1.97
2018-09-24T14:10:49.975Z,2.10
2018-09-24T14:13:24.966Z,2.27
2018-09-24T14:15:59.556Z,2.07
2018-09-24T14:18:34.176Z,2.50
2018-09-24T14:21:09.413Z,2.37
2018-09-24T14:23:43.998Z,2.30
2018-09-24T14:26:18.751Z,2.80
2018-09-24T14:28:53.789Z,2.37
2018-09-24T14:31:28.316Z,2.07
2018-09-24T14:34:03.654Z,2.07
2018-09-24T14:36:38.576Z,2.20
2018-09-24T14:39:14.331Z,2.80
2018-09-24T14:41:49.140Z,3.07
2018-09-24T14:44:23.504Z,2.77
2018-09-24T14:46:58.167Z,3.60
2018-09-24T14:49:33.363Z,4.00
2018-09-24T14:52:08.546Z,4.90
2018-09-24T14:54:43.847Z,3.90
2018-09-24T14:57:19.401Z,5.50
2018-09-24T14:59:54.558Z,3.53
2018-09-24T15:02:29.154Z,4.57
2018-09-24T15:05:04.159Z,4.60
2018-09-24T15:07:38.774Z,3.87
2018-09-24T15:10:13.659Z,14.97
2018-09-24T15:12:48.706Z,3.60
2018-09-24T15:15:23.547Z,3.50
2018-09-24T15:17:59.271Z,2.80
2018-09-24T15:20:34.242Z,2.10
2018-09-24T15:23:09.958Z,2.40
2018-09-24T15:25:44.679Z,2.30
2018-09-24T15:28:20.119Z,2.33
2018-09-24T15:30:54.655Z,2.33
2018-09-24T15:33:29.691Z,2.47
2018-09-24T15:36:05.127Z,2.50
2018-09-24T15:38:39.806Z,2.97
2018-09-24T15:41:14.551Z,2.77
2018-09-24T15:43:49.568Z,2.10
2018-09-24T15:46:24.344Z,2.50
2018-09-24T15:48:58.808Z,2.63
2018-09-24T15:51:33.431Z,1.90
2018-09-24T15:54:08.218Z,1.80
2018-09-24T15:56:42.995Z,1.80
2018-09-24T15:59:17.782Z,1.60
2018-09-24T16:01:52.298Z,2.50
2018-09-24T16:04:27.492Z,2.43
2018-09-24T16:07:02.544Z,1.80
2018-09-24T16:09:37.714Z,2.77
2018-09-24T16:12:12.511Z,2.50
2018-09-24T16:14:47.219Z,1.90
2018-09-24T16:17:21.807Z,2.20
2018-09-24T16:19:56.816Z,1.97
2018-09-24T16:22:31.580Z,2.10
2018-09-24T16:25:06.272Z,1.97
2018-09-24T16:27:41.007Z,3.00
2018-09-24T16:30:15.534Z,1.83
2018-09-24T16:32:50.485Z,3.93
2018-09-24T16:35:25.266Z,41.17
2018-09-24T16:37:59.931Z,15.57
2018-09-24T16:40:34.642Z,21.97
2018-09-24T16:43:09.500Z,20.63
2018-09-24T16:45:44.188Z,23.57
2018-09-24T16:48:18.822Z,11.83
2018-09-24T16:50:58.058Z,8.23
2018-09-24T16:53:32.906Z,6.93
2018-09-24T16:56:07.963Z,2.90
2018-09-24T16:58:43.191Z,3.53
2018-09-24T17:01:17.904Z,15.37
2018-09-24T17:03:52.508Z,5.67
2018-09-24T17:06:27.478Z,7.60
2018-09-24T17:09:02.247Z,5.20
2018-09-24T17:11:37.622Z,13.33
2018-09-24T17:14:12.582Z,10.13
2018-09-24T17:16:48.193Z,6.47
2018-09-24T17:19:22.717Z,5.77
2018-09-24T17:21:57.651Z,4.93
2018-09-24T17:24:33.093Z,3.63
2018-09-24T17:27:08.059Z,4.10
2018-09-24T17:29:42.884Z,2.50
2018-09-24T17:32:17.696Z,3.17
2018-09-24T17:34:52.276Z,3.20
2018-09-24T17:37:27.165Z,2.97
2018-09-24T17:40:01.528Z,3.13
2018-09-24T17:42:36.244Z,2.40
2018-09-24T17:45:11.361Z,2.23
2018-09-24T17:47:46.257Z,2.00
2018-09-24T17:50:20.856Z,3.30
2018-09-24T17:52:55.661Z,7.63
2018-09-24T17:55:31.078Z,3.10
2018-09-24T17:58:07.110Z,2.00
2018-09-24T18:00:41.940Z,1.90
2018-09-24T18:03:17.133Z,2.50
2018-09-24T18:05:51.717Z,2.90
2018-09-24T18:08:27.008Z,2.50
2018-09-24T18:11:01.583Z,2.57
2018-09-24T18:13:36.160Z,2.30
2018-09-24T18:16:11.121Z,2.60
2018-09-24T18:18:45.461Z,2.10
2018-09-24T18:21:20.445Z,2.80
2018-09-24T18:23:55.163Z,2.50
2018-09-24T18:26:29.710Z,2.70
2018-09-24T18:29:04.897Z,2.97
2018-09-24T18:31:39.923Z,3.40
2018-09-24T18:34:15.015Z,3.27
2018-09-24T18:36:49.862Z,3.43
2018-09-24T18:39:24.958Z,3.50
2018-09-24T18:41:59.429Z,4.77
2018-09-24T18:44:34.631Z,4.33
2018-09-24T18:47:09.626Z,7.87
2018-09-24T18:49:44.602Z,8.30
2018-09-24T18:52:19.667Z,28.07
2018-09-24T18:54:54.296Z,12.63
2018-09-24T18:57:29.024Z,2.80
2018-09-24T19:00:03.794Z,3.23
2018-09-24T19:02:38.829Z,2.80
2018-09-24T19:05:13.609Z,3.17
2018-09-24T19:07:48.163Z,3.43
2018-09-24T19:10:23.298Z,2.87
2018-09-24T19:13:01.590Z,3.23
2018-09-24T19:15:36.249Z,3.10
2018-09-24T19:18:11.364Z,3.07
2018-09-24T19:20:45.979Z,2.97
2018-09-24T19:23:21.040Z,3.23
2018-09-24T19:25:56.044Z,3.10
2018-09-24T19:28:30.623Z,3.07
2018-09-24T19:31:05.927Z,2.90
2018-09-24T19:33:40.937Z,2.83
2018-09-24T19:36:16.001Z,3.00
2018-09-24T19:38:51.028Z,4.00
2018-09-24T19:41:26.019Z,4.07
2018-09-24T19:44:00.772Z,3.47
2018-09-24T19:46:35.599Z,4.07
2018-09-24T19:49:10.056Z,3.43
2018-09-24T19:51:44.803Z,3.50
2018-09-24T19:54:19.507Z,3.63
2018-09-24T19:56:55.134Z,3.60
2018-09-24T19:59:29.606Z,3.47
2018-09-24T20:02:04.585Z,4.00
2018-09-24T20:04:39.093Z,3.60
2018-09-24T20:07:14.155Z,5.77
2018-09-24T20:09:49.995Z,3.70
2018-09-24T20:12:24.779Z,4.17
2018-09-24T20:14:59.893Z,3.93
2018-09-24T20:17:35.324Z,3.73
2018-09-24T20:20:10.250Z,17.07
2018-09-24T20:22:45.384Z,8.80
2018-09-24T20:25:20.249Z,9.03
2018-09-24T20:27:55.144Z,6.03
2018-09-24T20:30:29.898Z,4.03
2018-09-24T20:33:04.480Z,4.47
2018-09-24T20:35:39.897Z,4.87
2018-09-24T20:38:14.534Z,8.90
2018-09-24T20:40:49.679Z,6.73
2018-09-24T20:43:24.236Z,5.83
2018-09-24T20:45:58.984Z,4.30
2018-09-24T20:48:33.970Z,11.03
2018-09-24T20:51:09.308Z,19.17
2018-09-24T20:53:43.870Z,11.07
2018-09-24T20:56:18.458Z,5.53
2018-09-24T20:58:54.277Z,8.23
2018-09-24T21:01:29.012Z,14.40
2018-09-24T21:04:03.575Z,7.30
2018-09-24T21:06:38.530Z,4.40
2018-09-24T21:09:14.238Z,4.60
2018-09-24T21:11:48.864Z,5.67
2018-09-24T21:14:23.426Z,4.37
2018-09-24T21:16:58.243Z,4.40
2018-09-24T21:19:33.018Z,3.47
2018-09-24T21:22:08.134Z,3.13
2018-09-24T21:24:43.028Z,3.50
2018-09-24T21:27:18.098Z,3.30
2018-09-24T21:29:53.163Z,3.20
2018-09-24T21:32:28.247Z,3.27
2018-09-24T21:35:03.282Z,4.10
2018-09-24T21:37:37.981Z,3.67
2018-09-24T21:40:13.435Z,3.80
2018-09-24T21:42:48.769Z,3.50
2018-09-24T21:45:23.820Z,3.63
2018-09-24T21:47:58.872Z,3.23
2018-09-24T21:50:33.688Z,3.50
2018-09-24T21:53:08.420Z,3.80
2018-09-24T21:55:44.175Z,3.53
2018-09-24T21:58:19.255Z,3.50
2018-09-24T22:00:54.531Z,3.30
2018-09-24T22:03:29.476Z,3.40
2018-09-24T22:06:04.449Z,3.50
2018-09-24T22:08:40.345Z,3.57
2018-09-24T22:11:15.139Z,3.60
2018-09-24T22:13:50.125Z,3.40
2018-09-24T22:16:24.701Z,3.40
2018-09-24T22:18:59.612Z,3.83
2018-09-24T22:21:34.204Z,3.10
2018-09-24T22:24:08.843Z,3.90
2018-09-24T22:26:43.553Z,3.57
2018-09-24T22:29:18.642Z,3.70
2018-09-24T22:31:53.195Z,3.83
2018-09-24T22:34:28.243Z,3.80
2018-09-24T22:37:04.254Z,3.77
2018-09-24T22:39:38.894Z,3.70
2018-09-24T22:42:14.039Z,3.87
2018-09-24T22:44:49.474Z,3.90
2018-09-24T22:47:24.803Z,3.83
2018-09-24T22:49:59.530Z,3.97
2018-09-24T22:52:34.275Z,4.37
2018-09-24T22:55:09.171Z,4.07
2018-09-24T22:57:44.031Z,3.70
2018-09-24T23:00:19.263Z,3.80
2018-09-24T23:02:54.115Z,4.37
2018-09-24T23:05:28.977Z,3.60
2018-09-24T23:08:03.595Z,3.90
2018-09-24T23:10:38.235Z,4.17
2018-09-24T23:13:12.722Z,3.57
2018-09-24T23:15:47.530Z,4.00
2018-09-24T23:18:22.315Z,3.73
2018-09-24T23:20:56.987Z,3.93
2018-09-24T23:23:31.751Z,4.50
2018-09-24T23:26:06.367Z,4.17
2018-09-24T23:28:42.187Z,3.97
2018-09-24T23:31:16.967Z,3.80
2018-09-24T23:33:52.002Z,4.00
2018-09-24T23:36:26.588Z,3.80
2018-09-24T23:39:01.472Z,3.90
2018-09-24T23:41:36.264Z,3.60
2018-09-24T23:44:10.863Z,3.90
2018-09-24T23:46:45.566Z,3.50
2018-09-24T23:49:20.962Z,3.73
2018-09-24T23:51:55.701Z,3.27
2018-09-24T23:54:30.555Z,3.57
2018-09-24T23:57:05.290Z,3.77
2018-09-24T23:59:40.106Z,3.70
